Other Surface Observations
Issued by NWS

Home | Current Version | Previous Version | Text Only | Print | Product List | Glossary On
Versions: 1 2 3 4 5 6 7 8 9 10 11 12 13 14 15 16 17 18 19 20 21 22 23 24 25 26 27 28 29 30 31 32 33 34 35 36 37 38 39 40 41 42 43 44 45 46 47 48 49 50
000
SXPA56 KWBC 210739
OSOHW
:SHEF ENCODED 6-MINUTE NOS MET DATA
:NATIONAL WATER LEVEL OBSERVATION NETWORK (NWLON)
:TA(AIR TEMP DEG F)  SLP(SEA LEVEL PRESSURE INCHES)
:UD(WIND DIRECTION WHOLE DEGREES) US (WIND SPEED MPH)
:TW(WATER TEMP DEG F) UG(WIND GUSTS MPH) WC(CONDUCTIVITY uMHOS/CM)
:-9999 (MISSING VALUES)
:PROVIDED BY DOC/NOAA/NOS/CO-OPS, (301) 713-2540
:corms@noaa.gov
.E NWWH1 20180921 Z DH0724/TAIRP/DIN06/   77/   77
.E NWWH1 20180921 Z DH0724/PLIRP/DIN06/29.98/29.98
.E NWWH1 20180921 Z DH0724/USIRP/DIN06/    4/    4
.E NWWH1 20180921 Z DH0724/UDIRP/DIN06/  275/  293
.E NWWH1 20180921 Z DH0724/UGIRP/DIN06/    5/    6
.E NWWH1 20180921 Z DH0648/TAIRG/DIN06/-9999/-9999/-9999/-9999/-9999/   77/   77
.E NWWH1 20180921 Z DH0648/PLIRG/DIN06/-9999/-9999/-9999/-9999/-9999/29.98/29.98
.E NWWH1 20180921 Z DH0648/USIRG/DIN06/-9999/-9999/-9999/-9999/-9999/    5/    4
.E NWWH1 20180921 Z DH0648/UDIRG/DIN06/-9999/-9999/-9999/-9999/-9999/  246/  275
.E NWWH1 20180921 Z DH0648/UGIRG/DIN06/-9999/-9999/-9999/-9999/-9999/    7/    5
.E NWWH1 20180921 Z DH0648/TWIRG/DIN06/   84/   84/   84/-9999/-9999/-9999/-9999
.E OOUH1 20180921 Z DH0718/TAIRG/DIN06/   81/   81
.E OOUH1 20180921 Z DH0718/PLIRG/DIN06/29.95/29.95
.E OOUH1 20180921 Z DH0718/USIRG/DIN06/    1/    3
.E OOUH1 20180921 Z DH0718/UDIRG/DIN06/   40/   59
.E OOUH1 20180921 Z DH0718/UGIRG/DIN06/    4/    4
.E OOUH1 20180921 Z DH0718/TWIRG/DIN06/   82/   81
.E MOKH1 20180921 Z DH0724/PLIRP/DIN06/29.97/29.97
.E MOKH1 20180921 Z DH0724/TWIRP/DIN06/   83/   83
.E MOKH1 20180921 Z DH0718/TAIRG/DIN06/   81/   80
.E MOKH1 20180921 Z DH0718/PLIRG/DIN06/29.97/29.97
.E MOKH1 20180921 Z DH0718/USIRG/DIN06/    4/    6
.E MOKH1 20180921 Z DH0718/UDIRG/DIN06/   93/   82
.E MOKH1 20180921 Z DH0718/UGIRG/DIN06/    7/    9
.E MOKH1 20180921 Z DH0718/TWIRG/DIN06/   83/   83
.A KLIH1 20180921 Z DH0718/TAIRG    80/UGIRG     6/PLIRG 29.94/UDIRG    47/USIRG     3/TWIRG    87/WCIRG -9999
.A KWHH1 20180921 Z DH0718/TAIRP    82/UGIRP     6/PLIRP 29.93/UDIRP   198/USIRP     4/TWIRP    85/WCIRP -9999
.A KWHH1 20180921 Z DH0718/TAIRG    82/UGIRG     6/PLIRG 29.93/UDIRG   198/USIRG     4/TWIRG    85/WCIRG -9999
.E ILOH1 20180921 Z DH0654/TAIRG/DIN06/   79/   79/   79
.E ILOH1 20180921 Z DH0654/PLIRG/DIN06/29.97/29.97/29.97
.E ILOH1 20180921 Z DH0654/USIRG/DIN06/    2/    2/    3
.E ILOH1 20180921 Z DH0654/UDIRG/DIN06/  148/  134/  162
.E ILOH1 20180921 Z DH0654/UGIRG/DIN06/    4/    3/    4
.E ILOH1 20180921 Z DH0654/TWIRG/DIN06/   80/   80/   80
.E SNDP5 20180921 Z DH0718/TAIRG/DIN06/   78/   78
.E SNDP5 20180921 Z DH0718/PLIRG/DIN06/30.03/30.03
.E SNDP5 20180921 Z DH0718/TWIRG/DIN06/   80/   80
.E APRP7 20180921 Z DH0712/TAIRG/DIN06/   79/   79/   79
.E APRP7 20180921 Z DH0712/PLIRG/DIN06/29.67/29.68/29.68
.E APRP7 20180921 Z DH0712/USIRG/DIN06/   16/   15/   15
.E APRP7 20180921 Z DH0712/UDIRG/DIN06/  198/  196/  195
.E APRP7 20180921 Z DH0712/UGIRG/DIN06/   26/   22/   23
.E APRP7 20180921 Z DH0712/TWIRG/DIN06/   84/   84/   84
.E PGBP7 20180921 Z DH0718/PLIRG/DIN06/29.69/29.70
.E PGBP7 20180921 Z DH0718/USIRG/DIN06/   16/    9
.E PGBP7 20180921 Z DH0718/UDIRG/DIN06/  179/  177
.E PGBP7 20180921 Z DH0718/UGIRG/DIN06/   21/   15
.E NSTP6 20180921 Z DH0718/TAIRG/DIN06/   80/   80
.E NSTP6 20180921 Z DH0718/PLIRG/DIN06/29.84/29.84
.E NSTP6 20180921 Z DH0718/USIRG/DIN06/    4/   11
.E NSTP6 20180921 Z DH0718/UDIRG/DIN06/   81/   72
.E NSTP6 20180921 Z DH0718/UGIRG/DIN06/   13/   17
.E NSTP6 20180921 Z DH0718/TWIRG/DIN06/   83/   83
.A KWJP8 20180921 Z DH0724/TAIRG -9999/UGIRG -9999/PLIRG 29.76/UDIRG -9999/USIRG -9999/TWIRG    87/WCIRG -9999
.E WAKP8 20180921 Z DH0718/TAIRG/DIN06/   83/   83
.E WAKP8 20180921 Z DH0718/PLIRG/DIN06/29.82/29.83
.E WAKP8 20180921 Z DH0718/USIRG/DIN06/   11/   11
.E WAKP8 20180921 Z DH0718/UDIRG/DIN06/   38/   35
.E WAKP8 20180921 Z DH0718/UGIRG/DIN06/   13/   14
.E WAKP8 20180921 Z DH0718/TWIRG/DIN06/   88/   88



USA.gov is the U.S. government's official web portal to all federal, state and local government web resources and services.